Time;durP1;ratioP1;P1;durP2;ratioP2;P2;SDS_P1;SDS_P2;PMS_P1;PMS_P2;Temp;Humidity;BMP_temperature;BMP_pressure;BME280_temperature;BME280_humidity;BME280_pressure;Samples;Min_cycle;Max_cycle;Signal;HPM_P1;HPM_P2
2021/12/02 04:03:06;;;;;;;7.80;2.03;;;3.30;94.00;;;;;;5091107;28;20101;-38
2021/12/02 04:05:32;;;;;;;7.35;2.40;;;3.30;93.90;;;;;;5091012;28;20306;-39
2021/12/02 04:07:58;;;;;;;6.28;2.05;;;3.30;93.80;;;;;;5089311;28;20044;-38
2021/12/02 04:10:24;;;;;;;11.88;2.78;;;3.30;93.50;;;;;;5090623;28;20052;-38
2021/12/02 04:15:39;;;;;;;6.93;2.60;;;3.40;93.30;;;;;;5091179;28;20391;-38
2021/12/02 04:18:05;;;;;;;6.38;3.13;;;3.40;93.20;;;;;;5090785;28;20114;-38
2021/12/02 04:20:30;;;;;;;6.47;2.78;;;3.50;93.20;;;;;;5089512;28;20025;-37
2021/12/02 04:22:57;;;;;;;11.98;2.97;;;3.50;93.30;;;;;;5090192;28;20020;-38
2021/12/02 04:25:24;;;;;;;6.20;2.30;;;3.50;93.20;;;;;;5090352;28;20051;-39
2021/12/02 04:27:50;;;;;;;6.65;2.78;;;3.60;93.10;;;;;;5090068;28;20024;-39
2021/12/02 04:30:19;;;;;;;6.43;2.28;;;3.60;92.70;;;;;;5090374;28;20389;-38
2021/12/02 04:32:45;;;;;;;6.50;3.30;;;3.70;92.60;;;;;;5090853;28;20024;-39
2021/12/02 04:35:11;;;;;;;7.50;2.85;;;3.70;92.60;;;;;;5090108;28;20047;-39
2021/12/02 04:37:38;;;;;;;3.40;1.83;;;3.70;92.40;;;;;;5090472;28;20409;-39
2021/12/02 04:40:05;;;;;;;8.15;2.67;;;3.70;92.20;;;;;;5090241;28;20027;-39
2021/12/02 04:42:31;;;;;;;4.63;2.22;;;3.70;92.10;;;;;;5089860;28;20025;-37
2021/12/02 04:44:57;;;;;;;8.85;3.03;;;3.80;92.20;;;;;;5089910;28;20043;-38
2021/12/02 04:47:23;;;;;;;11.18;2.72;;;3.80;92.00;;;;;;5089846;28;20411;-38
2021/12/02 04:49:49;;;;;;;10.68;2.75;;;3.70;92.00;;;;;;5089767;28;20039;-39
2021/12/02 04:52:14;;;;;;;7.97;4.13;;;3.70;92.00;;;;;;5089789;28;20040;-39
2021/12/02 04:54:40;;;;;;;6.22;3.63;;;3.70;92.00;;;;;;5089706;28;20039;-42
2021/12/02 04:57:06;;;;;;;9.23;4.00;;;3.70;92.10;;;;;;5089687;28;20032;-38
2021/12/02 04:59:32;;;;;;;4.57;2.78;;;3.70;92.10;;;;;;5089369;28;20082;-38
2021/12/02 05:01:58;;;;;;;4.97;3.40;;;3.70;91.90;;;;;;5089195;28;20086;-39
2021/12/02 05:04:23;;;;;;;7.68;3.10;;;3.80;91.60;;;;;;5088356;28;20051;-39
2021/12/02 05:06:49;;;;;;;8.77;3.10;;;3.80;91.80;;;;;;5089243;28;20020;-39
2021/12/02 05:09:15;;;;;;;7.82;2.78;;;3.70;92.00;;;;;;5089344;28;20020;-39
2021/12/02 05:11:40;;;;;;;5.75;1.80;;;3.70;91.90;;;;;;5089169;28;20086;-39
2021/12/02 05:14:08;;;;;;;9.68;3.22;;;3.70;91.90;;;;;;5077721;28;20072;-38
2021/12/02 05:16:38;;;;;;;6.90;2.65;;;3.70;91.90;;;;;;5074349;28;20020;-39
2021/12/02 05:19:04;;;;;;;3.42;2.85;;;3.70;92.00;;;;;;5075617;28;20070;-41
2021/12/02 05:21:30;;;;;;;5.45;2.78;;;3.60;92.20;;;;;;5075425;28;20060;-38
2021/12/02 05:23:55;;;;;;;5.00;2.58;;;3.60;92.30;;;;;;5075306;28;20025;-39
2021/12/02 05:26:22;;;;;;;6.63;2.55;;;3.50;92.10;;;;;;5075590;28;20358;-38
2021/12/02 05:28:49;;;;;;;12.00;2.55;;;3.60;92.10;;;;;;5075629;28;20096;-39
2021/12/02 05:31:15;;;;;;;6.70;3.45;;;3.50;91.90;;;;;;5075345;28;20028;-40
2021/12/02 05:33:41;;;;;;;5.82;2.40;;;3.50;91.80;;;;;;5075471;28;20036;-38
2021/12/02 05:36:07;;;;;;;5.75;2.40;;;3.50;91.60;;;;;;5075079;28;20032;-38
2021/12/02 05:38:33;;;;;;;8.30;2.10;;;3.50;91.80;;;;;;5073939;28;20070;-39
2021/12/02 05:40:58;;;;;;;10.55;5.45;;;3.50;91.90;;;;;;5074917;28;20025;-39
2021/12/02 05:43:24;;;;;;;5.10;2.65;;;3.60;91.50;;;;;;5075532;28;20154;-40
2021/12/02 05:45:50;;;;;;;2.13;1.92;;;3.50;91.50;;;;;;5075070;28;20526;-38
2021/12/02 05:48:15;;;;;;;2.85;1.75;;;3.40;91.60;;;;;;5073616;28;20024;-38
2021/12/02 05:50:41;;;;;;;8.63;2.05;;;3.50;91.50;;;;;;5075054;28;20025;-38
2021/12/02 05:53:07;;;;;;;9.95;2.38;;;3.50;91.30;;;;;;5074889;28;20028;-39
2021/12/02 05:55:33;;;;;;;3.65;1.63;;;3.40;91.50;;;;;;5073564;28;20023;-39
2021/12/02 05:57:59;;;;;;;5.18;2.10;;;3.40;91.40;;;;;;5074778;28;20024;-38
2021/12/02 06:00:24;;;;;;;6.10;1.67;;;3.40;91.40;;;;;;5074866;28;20025;-38
2021/12/02 06:02:50;;;;;;;4.60;1.50;;;3.50;90.90;;;;;;5074770;28;20476;-38
2021/12/02 06:05:19;;;;;;;1.95;1.00;;;3.50;90.90;;;;;;5074868;28;20437;-38
2021/12/02 06:07:50;;;;;;;5.85;1.20;;;3.50;90.90;;;;;;5073289;28;20025;-38
2021/12/02 06:10:17;;;;;;;6.30;1.48;;;3.50;91.10;;;;;;5074597;28;20053;-40
2021/12/02 06:12:43;;;;;;;3.47;1.63;;;3.60;90.60;;;;;;5073369;28;20035;-38
2021/12/02 06:15:09;;;;;;;2.50;1.35;;;3.50;90.50;;;;;;5074373;28;20031;-38
2021/12/02 06:17:36;;;;;;;7.22;1.92;;;3.40;90.50;;;;;;5074580;28;20474;-38
2021/12/02 06:20:03;;;;;;;4.50;1.25;;;3.40;90.80;;;;;;5074645;28;20052;-37
2021/12/02 06:22:29;;;;;;;7.03;2.03;;;3.40;91.10;;;;;;5074036;28;20025;-38
2021/12/02 06:27:46;;;;;;;4.05;1.30;;;3.40;91.20;;;;;;5054409;28;20116;-38
2021/12/02 06:30:14;;;;;;;6.75;1.73;;;3.70;90.80;;;;;;5074511;28;20372;-39
2021/12/02 06:32:40;;;;;;;6.20;1.73;;;3.60;89.90;;;;;;5074088;28;20033;-38
2021/12/02 06:35:07;;;;;;;7.03;1.50;;;3.70;89.80;;;;;;5073904;28;20043;-39
2021/12/02 06:37:33;;;;;;;6.28;1.45;;;3.70;89.70;;;;;;5074090;28;20554;-38
2021/12/02 06:39:59;;;;;;;4.85;1.80;;;3.60;89.90;;;;;;5073777;28;20047;-37
2021/12/02 06:42:24;;;;;;;3.38;1.73;;;3.60;90.10;;;;;;5073733;28;20494;-38
2021/12/02 06:44:50;;;;;;;4.88;2.08;;;3.60;89.90;;;;;;5073708;28;20024;-38
2021/12/02 06:47:16;;;;;;;4.97;2.25;;;3.60;89.90;;;;;;5073427;28;20611;-39
2021/12/02 06:49:42;;;;;;;6.70;1.65;;;3.70;89.90;;;;;;5073733;28;20357;-38
2021/12/02 06:52:13;;;;;;;3.58;2.30;;;3.70;89.70;;;;;;5073437;28;20520;-39
2021/12/02 06:54:39;;;;;;;4.47;1.73;;;3.80;89.00;;;;;;5072316;28;20051;-38
2021/12/02 06:57:06;;;;;;;4.88;2.65;;;3.80;88.40;;;;;;5073609;28;20035;-38
2021/12/02 06:59:32;;;;;;;6.95;2.15;;;3.70;88.70;;;;;;5071971;28;20162;-39
2021/12/02 07:01:58;;;;;;;7.90;2.05;;;3.60;89.20;;;;;;5073165;28;20553;-38
2021/12/02 07:04:24;;;;;;;5.32;2.15;;;3.70;89.50;;;;;;5073910;28;20048;-38
2021/12/02 07:06:50;;;;;;;4.57;2.97;;;3.80;89.40;;;;;;5073612;28;20020;-38
2021/12/02 07:09:15;;;;;;;12.18;3.15;;;3.80;89.40;;;;;;5073449;28;20052;-39
2021/12/02 07:11:42;;;;;;;4.45;2.47;;;3.80;89.20;;;;;;5073338;28;20024;-40
2021/12/02 07:14:13;;;;;;;6.55;3.47;;;3.80;89.40;;;;;;5073644;28;20036;-38
2021/12/02 07:16:39;;;;;;;11.15;3.80;;;3.80;89.40;;;;;;5073518;28;20100;-39
2021/12/02 07:19:07;;;;;;;12.63;4.40;;;4.00;89.40;;;;;;5073214;28;20029;-38
2021/12/02 07:21:36;;;;;;;10.23;5.15;;;4.00;89.10;;;;;;5073485;28;20028;-39
2021/12/02 07:24:05;;;;;;;11.90;6.93;;;3.90;89.70;;;;;;5073042;28;20103;-39
2021/12/02 07:26:36;;;;;;;12.90;6.53;;;3.90;89.90;;;;;;5073083;28;20025;-39
2021/12/02 07:29:02;;;;;;;17.05;6.10;;;3.80;90.00;;;;;;5072824;28;20028;-39
2021/12/02 07:31:30;;;;;;;9.00;5.63;;;3.70;90.20;;;;;;5073154;28;20086;-39
2021/12/02 07:33:57;;;;;;;6.22;4.53;;;3.60;90.30;;;;;;5073052;28;20029;-39
2021/12/02 07:36:24;;;;;;;8.40;4.80;;;3.70;90.50;;;;;;5072336;28;20039;-39
2021/12/02 07:38:50;;;;;;;7.43;4.97;;;3.50;90.30;;;;;;5073468;28;20037;-39
2021/12/02 07:41:16;;;;;;;6.80;3.97;;;3.60;90.50;;;;;;5071198;28;20086;-39
2021/12/02 07:43:42;;;;;;;4.63;3.03;;;3.50;90.30;;;;;;5073115;28;20051;-39
2021/12/02 07:46:09;;;;;;;7.30;3.10;;;3.60;90.30;;;;;;5072687;28;20021;-39
2021/12/02 07:48:36;;;;;;;5.90;2.75;;;3.50;89.90;;;;;;5072612;28;20384;-40
2021/12/02 07:51:15;;;;;;;4.85;3.17;;;3.50;89.90;;;;;;5072329;28;20025;-39
2021/12/02 07:53:44;;;;;;;5.85;3.13;;;3.60;90.00;;;;;;5072166;28;20078;-39
2021/12/02 07:56:13;;;;;;;3.22;2.08;;;3.60;90.10;;;;;;5072467;28;20017;-38
2021/12/02 07:58:44;;;;;;;3.13;1.90;;;3.40;89.70;;;;;;5071425;28;20425;-38
2021/12/02 14:03:10;;;;;;;6.13;1.65;;;3.90;88.40;;;;;;5130776;27;20108;-39
2021/12/02 14:05:43;;;;;;;1.88;1.45;;;3.90;88.20;;;;;;5112834;28;20030;-40
2021/12/02 14:08:11;;;;;;;4.15;1.92;;;4.00;87.90;;;;;;5130346;28;20479;-39
2021/12/02 14:10:38;;;;;;;2.85;1.45;;;4.20;87.70;;;;;;5112213;28;20092;-39
2021/12/02 14:13:05;;;;;;;2.63;1.35;;;4.20;87.30;;;;;;5130358;28;20026;-41
2021/12/02 14:15:38;;;;;;;9.18;1.70;;;4.40;86.70;;;;;;5130441;28;20471;-39
2021/12/02 14:18:19;;;;;;;2.40;1.05;;;4.30;86.20;;;;;;5130377;28;20015;-39
2021/12/02 14:20:56;;;;;;;1.00;1.00;;;4.40;85.70;;;;;;5130642;27;20119;-39
2021/12/02 14:23:29;;;;;;;1.98;1.13;;;4.30;85.80;;;;;;5130844;27;20043;-39
2021/12/02 14:26:05;;;;;;;1.10;0.95;;;4.40;86.40;;;;;;5130332;27;20389;-38
2021/12/02 14:28:35;;;;;;;10.00;4.78;;;4.40;85.10;;;;;;5130244;27;20517;-40
2021/12/02 14:31:07;;;;;;;1.40;1.30;;;4.20;86.50;;;;;;5130611;27;20023;-39
2021/12/02 14:33:42;;;;;;;2.47;0.90;;;3.80;87.70;;;;;;5112842;28;20428;-41
2021/12/02 14:36:09;;;;;;;6.55;2.38;;;3.70;88.40;;;;;;5129434;28;20074;-39
2021/12/02 14:39:03;;;;;;;2.25;1.50;;;3.70;89.00;;;;;;5129168;28;20035;-40
2021/12/02 14:41:36;;;;;;;1.73;1.27;;;3.30;89.30;;;;;;5125558;28;20031;-39
2021/12/02 14:44:13;;;;;;;2.10;1.55;;;3.20;89.70;;;;;;5129773;27;20058;-40
2021/12/02 14:46:44;;;;;;;1.45;0.90;;;3.10;90.00;;;;;;5130241;28;20113;-41
2021/12/02 14:49:11;;;;;;;;;;;2.90;89.60;;;;;;5131047;27;20012;-40
2021/12/02 14:51:59;;;;;;;1.88;0.82;;;2.70;90.10;;;;;;5128156;28;19938;-39
2021/12/02 14:55:00;;;;;;;4.70;1.30;;;2.50;90.80;;;;;;5130148;27;20058;-40
2021/12/02 14:57:28;;;;;;;2.50;1.17;;;2.50;90.90;;;;;;5129367;27;20032;-40
2021/12/02 15:00:04;;;;;;;3.20;1.02;;;2.40;90.90;;;;;;5129724;27;20063;-39
2021/12/02 15:02:38;;;;;;;3.80;1.20;;;2.40;90.90;;;;;;5129207;27;20075;-40
2021/12/02 15:05:24;;;;;;;1.00;0.80;;;2.50;91.00;;;;;;5129502;27;20022;-40
2021/12/02 15:07:56;;;;;;;2.00;0.90;;;2.40;90.90;;;;;;5129929;27;20031;-41
2021/12/02 15:10:27;;;;;;;1.15;1.05;;;2.50;91.00;;;;;;5129923;27;20019;-40
2021/12/02 15:12:54;;;;;;;;;;;2.50;90.90;;;;;;5125365;27;20459;-39
2021/12/02 15:15:24;;;;;;;2.85;1.73;;;2.50;90.90;;;;;;5115953;28;19903;-41
2021/12/02 15:17:55;;;;;;;2.60;1.50;;;2.40;90.90;;;;;;5116801;28;20467;-39
2021/12/02 15:20:32;;;;;;;2.10;1.38;;;2.50;90.80;;;;;;5114605;28;20027;-41
2021/12/02 15:23:16;;;;;;;2.05;1.48;;;2.50;90.50;;;;;;5115362;28;20028;-40
2021/12/02 15:26:15;;;;;;;7.38;1.77;;;2.50;90.70;;;;;;5115559;28;20030;-40
2021/12/02 15:28:46;;;;;;;1.40;1.30;;;2.50;90.90;;;;;;5106580;28;20036;-40
2021/12/02 15:31:35;;;;;;;3.28;1.60;;;2.50;90.70;;;;;;5115408;28;20164;-40
2021/12/02 15:34:02;;;;;;;3.78;2.45;;;2.50;90.60;;;;;;5115890;28;20073;-40
2021/12/02 15:36:31;;;;;;;2.80;1.60;;;2.60;90.90;;;;;;5115165;28;20027;-40
2021/12/02 15:38:58;;;;;;;2.45;1.95;;;2.70;90.60;;;;;;5115034;28;20039;-41
2021/12/02 15:41:26;;;;;;;1.90;1.63;;;2.80;90.50;;;;;;5113689;28;20119;-40
2021/12/02 15:44:00;;;;;;;2.72;1.55;;;2.70;89.10;;;;;;5115071;28;20088;-39
2021/12/02 15:46:41;;;;;;;4.40;1.50;;;2.60;88.80;;;;;;5115465;28;20027;-40
2021/12/02 15:49:15;;;;;;;2.13;1.40;;;2.60;89.10;;;;;;5115425;28;20030;-40
2021/12/02 15:51:41;;;;;;;3.55;1.38;;;2.70;88.60;;;;;;5114798;28;20042;-39
2021/12/02 15:54:09;;;;;;;3.58;1.88;;;2.70;88.90;;;;;;5113292;28;20055;-39
2021/12/02 15:56:35;;;;;;;2.45;1.75;;;2.70;87.50;;;;;;5114981;28;20072;-40
2021/12/02 15:59:00;;;;;;;1.88;1.67;;;2.70;87.60;;;;;;5114908;28;20023;-40
2021/12/02 16:01:30;;;;;;;4.45;2.15;;;2.80;87.80;;;;;;5113351;28;20080;-40
2021/12/02 16:04:03;;;;;;;1.60;1.50;;;2.80;87.60;;;;;;5114837;28;20026;-39
2021/12/02 16:07:33;;;;;;;2.47;1.65;;;2.80;87.70;;;;;;5115429;28;20028;-39
2021/12/02 16:14:52;;;;;;;4.13;2.08;;;2.80;87.60;;;;;;5114691;28;20130;-40
2021/12/02 16:17:18;;;;;;;3.63;1.63;;;2.70;87.80;;;;;;5114146;28;20028;-40
2021/12/02 16:19:44;;;;;;;2.30;2.10;;;2.80;88.00;;;;;;5114050;28;20024;-40
2021/12/02 16:22:10;;;;;;;2.20;2.00;;;2.90;88.00;;;;;;5114513;28;20395;-40
2021/12/02 16:24:36;;;;;;;2.65;2.00;;;2.90;88.00;;;;;;5113387;28;20020;-40
2021/12/02 16:27:03;;;;;;;6.90;2.85;;;2.80;88.10;;;;;;5112532;28;20110;-41
2021/12/02 16:29:30;;;;;;;3.83;2.25;;;2.80;88.40;;;;;;5113953;28;20078;-39
2021/12/02 16:31:56;;;;;;;3.47;2.63;;;2.80;88.30;;;;;;5114621;28;20339;-40
2021/12/02 16:34:23;;;;;;;2.55;2.35;;;2.90;88.30;;;;;;5114786;28;20383;-40
2021/12/02 16:36:49;;;;;;;3.70;2.90;;;2.80;88.50;;;;;;5114362;28;20036;-40
2021/12/02 16:39:19;;;;;;;5.90;3.75;;;2.80;89.00;;;;;;5114136;28;20030;-39
2021/12/02 16:41:44;;;;;;;7.55;3.45;;;2.70;89.30;;;;;;5114389;28;20365;-39
2021/12/02 16:44:10;;;;;;;4.45;3.55;;;2.70;89.20;;;;;;5114103;28;20015;-40
2021/12/02 16:46:36;;;;;;;5.88;3.63;;;2.60;89.50;;;;;;5114220;28;20065;-39
2021/12/02 16:49:02;;;;;;;5.78;3.95;;;2.50;89.50;;;;;;5114233;28;20024;-40
2021/12/02 16:51:30;;;;;;;4.85;3.63;;;2.50;89.50;;;;;;5114474;28;20030;-40
2021/12/02 16:53:56;;;;;;;3.55;2.60;;;2.50;89.50;;;;;;5112874;28;20027;-39
2021/12/02 16:56:23;;;;;;;3.90;3.28;;;2.50;89.70;;;;;;5113357;28;20098;-39
2021/12/02 16:58:48;;;;;;;8.43;3.58;;;2.50;89.50;;;;;;5114027;28;20019;-40
2021/12/02 17:01:14;;;;;;;9.10;5.38;;;2.50;89.60;;;;;;5113655;28;20390;-39
2021/12/02 17:03:42;;;;;;;5.90;4.18;;;2.40;89.50;;;;;;5112947;28;20020;-40
2021/12/02 17:06:08;;;;;;;32.65;19.88;;;2.40;89.50;;;;;;5113893;28;20028;-39
2021/12/02 17:08:33;;;;;;;7.82;4.30;;;2.30;89.60;;;;;;5113417;28;20069;-39
2021/12/02 17:11:02;;;;;;;5.20;3.85;;;2.20;90.00;;;;;;5113278;28;20413;-41
2021/12/02 17:13:29;;;;;;;4.30;2.88;;;2.30;90.30;;;;;;5113809;28;20024;-39
2021/12/02 17:15:55;;;;;;;6.13;3.53;;;2.30;89.90;;;;;;5112735;28;20106;-39
2021/12/02 17:18:21;;;;;;;6.15;3.70;;;2.30;89.90;;;;;;5112681;28;20574;-40
2021/12/02 17:20:47;;;;;;;4.90;3.60;;;2.30;90.00;;;;;;5114169;28;20055;-39
2021/12/02 17:23:14;;;;;;;5.70;3.80;;;2.50;90.00;;;;;;5113528;28;20020;-39
2021/12/02 17:25:41;;;;;;;4.47;3.30;;;2.60;89.70;;;;;;5113738;28;20058;-39
2021/12/02 17:28:07;;;;;;;5.03;3.85;;;2.70;89.60;;;;;;5112467;28;20028;-40
2021/12/02 17:30:35;;;;;;;6.00;4.35;;;2.80;89.40;;;;;;5114426;28;20030;-40
2021/12/02 17:33:01;;;;;;;12.20;4.50;;;2.80;88.90;;;;;;5113988;28;20452;-39
2021/12/02 17:35:28;;;;;;;6.82;3.88;;;2.70;88.80;;;;;;5113383;28;20028;-40
2021/12/02 17:37:55;;;;;;;4.35;3.88;;;2.70;88.90;;;;;;5113406;28;20468;-39
2021/12/02 17:40:32;;;;;;;5.82;3.88;;;2.60;89.00;;;;;;5113578;28;20108;-39
2021/12/02 17:43:00;;;;;;;5.95;4.32;;;2.60;89.00;;;;;;5113527;28;20031;-42
2021/12/02 17:45:26;;;;;;;6.22;3.67;;;2.50;89.00;;;;;;5113054;28;20051;-39
2021/12/02 17:47:54;;;;;;;11.93;6.15;;;2.30;89.00;;;;;;5113307;28;20251;-39
2021/12/02 17:50:24;;;;;;;10.23;5.50;;;2.30;89.30;;;;;;5113139;28;20027;-39
2021/12/02 17:52:50;;;;;;;6.63;4.50;;;2.30;89.60;;;;;;5113771;28;20323;-39
2021/12/02 17:55:17;;;;;;;7.07;4.85;;;2.10;89.90;;;;;;5113564;28;20036;-39
2021/12/02 17:57:43;;;;;;;10.02;5.90;;;2.00;90.60;;;;;;5113205;28;20110;-41
2021/12/02 18:00:11;;;;;;;68.55;44.13;;;1.90;91.00;;;;;;5112570;28;20027;-39
2021/12/02 18:02:37;;;;;;;14.10;8.85;;;1.90;91.20;;;;;;5113136;28;20044;-39
2021/12/02 18:05:06;;;;;;;10.32;6.30;;;1.80;91.40;;;;;;5113103;28;20167;-40
2021/12/02 18:07:32;;;;;;;6.60;4.75;;;1.80;91.60;;;;;;5113064;28;20332;-39
2021/12/02 18:09:58;;;;;;;6.65;4.85;;;1.80;91.80;;;;;;5111493;28;20020;-38
2021/12/02 18:12:25;;;;;;;6.60;4.25;;;1.80;92.00;;;;;;5112982;28;20527;-40
2021/12/02 18:14:51;;;;;;;8.15;4.97;;;1.80;91.90;;;;;;5112812;28;20028;-39
2021/12/02 18:17:17;;;;;;;5.78;4.15;;;1.90;91.50;;;;;;5112921;28;20036;-39
2021/12/02 18:19:42;;;;;;;11.02;4.72;;;1.90;91.60;;;;;;5112814;28;20027;-39
2021/12/02 18:22:09;;;;;;;6.30;4.78;;;1.80;91.50;;;;;;5112644;28;20027;-39
2021/12/02 18:24:36;;;;;;;5.85;4.45;;;1.80;91.60;;;;;;5112617;28;20479;-39
2021/12/02 18:27:02;;;;;;;14.50;3.95;;;1.90;91.90;;;;;;5112590;28;20476;-40
2021/12/02 18:29:28;;;;;;;8.02;5.25;;;1.80;91.60;;;;;;5112198;28;20012;-40
2021/12/02 18:31:54;;;;;;;6.55;5.15;;;1.80;91.60;;;;;;5112689;28;20102;-38
2021/12/02 18:34:20;;;;;;;4.78;4.28;;;1.80;91.80;;;;;;5112417;28;20073;-40
2021/12/02 18:36:46;;;;;;;5.65;4.40;;;1.70;91.90;;;;;;5112459;28;20096;-39
2021/12/02 18:39:15;;;;;;;5.75;4.45;;;1.60;92.10;;;;;;5112928;28;20028;-39
2021/12/02 18:41:42;;;;;;;38.10;23.98;;;1.60;92.10;;;;;;5112726;28;20464;-40
2021/12/02 18:44:08;;;;;;;14.70;9.73;;;1.50;92.40;;;;;;5112863;28;20434;-45
2021/12/02 18:46:38;;;;;;;8.98;6.50;;;1.40;92.60;;;;;;5112772;28;20035;-39
2021/12/02 18:49:05;;;;;;;11.02;6.00;;;1.30;92.70;;;;;;5115255;28;20100;-39
2021/12/02 18:51:33;;;;;;;9.25;5.53;;;1.30;92.70;;;;;;5116929;28;20403;-39
2021/12/02 18:54:04;;;;;;;8.20;5.20;;;1.30;92.80;;;;;;5116122;28;20027;-39
2021/12/02 18:56:31;;;;;;;9.48;5.93;;;1.30;92.70;;;;;;5117009;28;20036;-41
2021/12/02 18:58:57;;;;;;;8.32;4.88;;;1.30;92.70;;;;;;5116367;28;20023;-40
2021/12/02 19:01:24;;;;;;;9.85;6.55;;;1.20;92.70;;;;;;5115849;28;20105;-40
2021/12/02 19:03:50;;;;;;;10.63;6.47;;;1.10;92.80;;;;;;5116101;28;20028;-39
2021/12/02 19:06:47;;;;;;;10.57;5.93;;;1.10;92.90;;;;;;5116126;28;20102;-39
2021/12/02 19:28:23;;;;;;;13.88;8.05;;;0.50;93.60;;;;;;5116383;28;20035;-38
2021/12/02 19:30:48;;;;;;;20.50;12.85;;;0.50;93.80;;;;;;5116149;28;20016;-39
2021/12/02 19:33:14;;;;;;;22.80;12.80;;;0.50;94.10;;;;;;5116289;28;20020;-39
2021/12/02 19:35:42;;;;;;;11.35;7.50;;;0.50;94.10;;;;;;5114533;28;20015;-39
2021/12/02 19:38:07;;;;;;;12.55;7.25;;;0.50;94.20;;;;;;5114758;28;20387;-39
2021/12/02 19:40:35;;;;;;;11.07;6.20;;;0.50;94.10;;;;;;5116361;28;20034;-40
2021/12/02 19:43:02;;;;;;;10.07;7.15;;;0.30;94.20;;;;;;5114458;28;20020;-40
2021/12/02 19:45:29;;;;;;;14.85;7.03;;;0.40;94.30;;;;;;5115714;28;20111;-39
2021/12/02 19:47:55;;;;;;;8.38;6.60;;;0.40;94.20;;;;;;5114412;28;20024;-40
2021/12/02 19:50:23;;;;;;;12.95;8.65;;;0.40;94.20;;;;;;5116141;28;20080;-39
2021/12/02 19:52:49;;;;;;;12.27;8.25;;;0.40;94.20;;;;;;5115948;28;20040;-39
2021/12/02 19:55:15;;;;;;;13.20;7.90;;;0.40;94.10;;;;;;5114222;28;20363;-39
2021/12/02 19:57:41;;;;;;;12.80;7.25;;;0.30;94.00;;;;;;5115692;28;20034;-40
2021/12/02 20:00:11;;;;;;;11.68;7.78;;;0.30;94.10;;;;;;5115354;28;20054;-39
2021/12/02 20:02:37;;;;;;;13.68;8.57;;;0.30;94.10;;;;;;5115008;28;20040;-40
2021/12/02 20:05:04;;;;;;;16.50;6.93;;;0.30;94.20;;;;;;5115198;28;20028;-40
2021/12/02 20:07:29;;;;;;;10.00;7.03;;;0.30;94.10;;;;;;5115088;28;20104;-40
2021/12/02 20:09:55;;;;;;;12.90;8.13;;;0.30;94.10;;;;;;5115038;28;20024;-40
2021/12/02 20:12:21;;;;;;;13.77;8.55;;;0.30;93.90;;;;;;5114924;28;20513;-39
2021/12/02 20:14:46;;;;;;;14.35;7.13;;;0.40;93.90;;;;;;5115074;28;20032;-40
2021/12/02 20:17:19;;;;;;;10.60;7.20;;;0.30;93.70;;;;;;5115167;28;20063;-40
2021/12/02 20:19:45;;;;;;;12.13;7.68;;;0.30;93.80;;;;;;5115263;28;20537;-40
2021/12/02 20:22:11;;;;;;;13.23;7.53;;;0.30;93.80;;;;;;5113667;28;20020;-40
2021/12/02 20:24:37;;;;;;;13.68;7.50;;;0.30;93.90;;;;;;5114694;28;20031;-39
2021/12/02 20:27:04;;;;;;;19.60;9.38;;;0.30;93.90;;;;;;5114828;28;20031;-41
2021/12/02 20:29:31;;;;;;;13.88;8.27;;;0.30;94.10;;;;;;5114679;28;20027;-40
2021/12/02 20:31:57;;;;;;;17.65;8.55;;;0.40;94.10;;;;;;5114463;28;20042;-40
2021/12/02 20:34:23;;;;;;;14.90;8.27;;;0.30;94.10;;;;;;5114677;28;20020;-40
2021/12/02 20:36:50;;;;;;;22.95;9.70;;;0.30;93.90;;;;;;5114415;28;20035;-40
2021/12/02 20:39:17;;;;;;;14.93;8.68;;;0.20;93.90;;;;;;5114380;28;20028;-39
2021/12/02 20:41:47;;;;;;;15.18;9.25;;;0.20;94.00;;;;;;5113025;28;20030;-39
2021/12/02 20:44:14;;;;;;;16.05;9.85;;;0.10;94.10;;;;;;5114398;28;20024;-40
2021/12/02 20:46:44;;;;;;;15.75;10.57;;;0.10;94.20;;;;;;5114432;28;20102;-40
2021/12/02 20:49:27;;;;;;;18.30;10.77;;;0.00;94.20;;;;;;5114463;28;20047;-40
2021/12/02 20:51:53;;;;;;;20.15;11.65;;;0.10;94.30;;;;;;5114872;28;20054;-40
2021/12/02 20:54:19;;;;;;;24.48;14.15;;;0.10;94.40;;;;;;5114460;28;20028;-40
2021/12/02 20:56:47;;;;;;;23.60;13.45;;;0.20;94.40;;;;;;5114789;28;20035;-40
2021/12/02 20:59:13;;;;;;;24.35;15.02;;;0.10;94.20;;;;;;5113001;28;20118;-40
2021/12/02 21:01:39;;;;;;;27.98;16.88;;;0.10;94.20;;;;;;5114018;28;20036;-39
2021/12/02 21:04:05;;;;;;;26.27;15.13;;;0.10;94.20;;;;;;5114072;28;20030;-39
2021/12/02 21:06:30;;;;;;;19.33;13.23;;;0.10;94.20;;;;;;5114146;28;20022;-39
2021/12/02 21:09:00;;;;;;;23.60;14.45;;;0.10;94.30;;;;;;5114123;28;20019;-39
2021/12/02 21:11:31;;;;;;;25.15;15.15;;;0.10;94.30;;;;;;5112234;28;20062;-40
2021/12/02 21:13:57;;;;;;;21.35;12.80;;;0.10;94.40;;;;;;5114184;28;20055;-39
2021/12/02 21:16:24;;;;;;;23.08;12.90;;;0.00;94.40;;;;;;5114567;28;20031;-39
2021/12/02 21:18:50;;;;;;;24.98;14.20;;;0.00;94.40;;;;;;5113641;28;20391;-40
2021/12/02 21:21:18;;;;;;;23.95;13.77;;;0.00;94.40;;;;;;5113596;28;20125;-39
2021/12/02 21:23:46;;;;;;;20.50;13.43;;;0.00;94.40;;;;;;5113838;28;20024;-39
2021/12/02 21:26:13;;;;;;;23.92;13.23;;;-3276.70;94.50;;;;;;5113688;28;20020;-38
2021/12/02 21:28:40;;;;;;;23.02;14.55;;;-3276.70;94.60;;;;;;5113949;28;20028;-39
2021/12/02 21:31:06;;;;;;;19.90;12.15;;;0.00;94.80;;;;;;5113637;28;20027;-39
2021/12/02 21:33:36;;;;;;;19.38;12.77;;;0.10;94.80;;;;;;5113648;28;20084;-40
2021/12/02 21:36:09;;;;;;;22.70;12.13;;;0.00;94.80;;;;;;5113336;28;20015;-40
2021/12/02 21:38:39;;;;;;;19.25;11.15;;;0.10;94.80;;;;;;5113757;28;20119;-41
2021/12/02 21:41:06;;;;;;;23.48;11.68;;;0.20;94.80;;;;;;5112170;28;20378;-39
2021/12/02 21:43:33;;;;;;;22.48;12.95;;;0.20;94.80;;;;;;5113372;28;20065;-40
2021/12/02 21:46:00;;;;;;;26.98;12.00;;;0.20;94.70;;;;;;5113690;28;20017;-40
2021/12/02 21:48:26;;;;;;;21.90;11.82;;;0.20;94.60;;;;;;5112256;28;20463;-40
2021/12/02 21:50:52;;;;;;;20.48;12.48;;;0.20;94.50;;;;;;5113910;28;20055;-40
2021/12/02 21:53:18;;;;;;;18.98;11.93;;;0.10;94.50;;;;;;5113877;28;20106;-41
2021/12/02 21:55:44;;;;;;;19.55;12.18;;;0.10;94.70;;;;;;5114198;28;20431;-39
2021/12/02 21:58:13;;;;;;;22.67;11.60;;;0.10;94.70;;;;;;5112494;28;20032;-39
2021/12/02 22:01:14;;;;;;;22.92;12.50;;;0.10;94.70;;;;;;5112979;28;20405;-41
2021/12/02 22:03:30;;;;;;;30.73;13.10;;;0.10;94.70;;;;;;5110396;28;20135;-39
2021/12/02 22:06:01;;;;;;;23.00;12.63;;;0.10;94.70;;;;;;5113136;28;20047;-39
2021/12/02 22:08:31;;;;;;;22.00;12.32;;;0.10;94.70;;;;;;5113291;28;20498;-40
2021/12/02 22:10:57;;;;;;;18.45;11.40;;;0.10;94.70;;;;;;5113316;27;20395;-40
2021/12/02 22:13:23;;;;;;;26.77;12.98;;;0.10;94.50;;;;;;5113125;28;20469;-40
2021/12/02 22:15:49;;;;;;;21.10;12.88;;;0.10;94.60;;;;;;5113360;28;20065;-39
2021/12/02 22:18:15;;;;;;;20.33;12.00;;;0.20;94.60;;;;;;5113480;28;20452;-40
2021/12/02 22:20:41;;;;;;;22.42;13.10;;;0.30;94.50;;;;;;5113416;28;20038;-40
2021/12/02 22:23:06;;;;;;;21.55;13.23;;;0.30;94.40;;;;;;5113781;28;20034;-39
2021/12/02 22:25:32;;;;;;;22.42;12.57;;;0.30;94.40;;;;;;5116895;28;20072;-39
2021/12/02 22:27:58;;;;;;;22.65;13.20;;;0.40;94.20;;;;;;5116990;28;20095;-39
2021/12/02 22:30:23;;;;;;;23.35;13.10;;;0.50;94.30;;;;;;5116902;28;20028;-39
2021/12/02 22:32:52;;;;;;;25.20;14.05;;;0.50;94.30;;;;;;5116902;28;20035;-40
2021/12/02 22:35:18;;;;;;;22.23;13.95;;;0.60;94.30;;;;;;5116870;28;20023;-40
2021/12/02 22:37:44;;;;;;;28.80;14.88;;;0.70;94.20;;;;;;5115611;28;20031;-39
2021/12/02 22:40:16;;;;;;;32.00;15.57;;;0.80;94.10;;;;;;5116994;28;20123;-38
2021/12/02 22:42:42;;;;;;;44.03;19.90;;;0.80;93.80;;;;;;5116796;28;20020;-39
2021/12/02 22:45:08;;;;;;;42.13;20.02;;;0.80;94.10;;;;;;5116976;28;20053;-39
2021/12/02 22:47:33;;;;;;;52.95;21.58;;;0.80;94.20;;;;;;5116737;28;20031;-39
2021/12/02 22:50:00;;;;;;;48.92;19.95;;;0.70;94.30;;;;;;5117111;28;20023;-39
2021/12/02 22:52:27;;;;;;;69.95;23.42;;;0.80;94.60;;;;;;5116547;28;20027;-39
2021/12/02 22:54:57;;;;;;;60.95;22.92;;;0.80;94.90;;;;;;5116429;28;20048;-40
2021/12/02 22:57:22;;;;;;;77.53;27.77;;;0.70;95.00;;;;;;5116457;28;20024;-40
